createdAt,value
2023-07-27T00:00:59.117Z,16.08
2023-07-27T00:03:28.478Z,16.05
2023-07-27T00:05:59.566Z,16.03
2023-07-27T00:08:31.015Z,15.99
2023-07-27T00:11:02.263Z,15.98
2023-07-27T00:13:32.991Z,15.99
2023-07-27T00:16:04.369Z,15.98
2023-07-27T00:18:33.520Z,15.98
2023-07-27T00:21:02.649Z,15.97
2023-07-27T00:23:31.790Z,15.98
2023-07-27T00:26:00.999Z,15.97
2023-07-27T00:28:30.177Z,15.93
2023-07-27T00:30:59.339Z,15.95
2023-07-27T00:33:28.436Z,15.94
2023-07-27T00:35:58.754Z,15.96
2023-07-27T00:38:29.602Z,15.96
2023-07-27T00:40:58.936Z,15.95
2023-07-27T00:43:28.154Z,15.92
2023-07-27T00:45:57.790Z,15.92
2023-07-27T00:48:26.917Z,15.90
2023-07-27T00:50:57.083Z,15.83
2023-07-27T00:53:26.799Z,15.82
2023-07-27T00:55:56.025Z,15.82
2023-07-27T00:58:25.510Z,15.79
2023-07-27T01:00:55.978Z,15.81
2023-07-27T01:03:25.399Z,15.78
2023-07-27T01:05:55.771Z,15.77
2023-07-27T01:08:24.933Z,15.79
2023-07-27T01:10:54.074Z,15.78
2023-07-27T01:13:41.666Z,15.71
2023-07-27T01:16:15.678Z,15.63
2023-07-27T01:18:51.462Z,15.63
2023-07-27T01:21:21.744Z,15.62
2023-07-27T01:24:15.025Z,15.60
2023-07-27T01:27:02.898Z,15.61
2023-07-27T01:29:36.598Z,15.59
2023-07-27T01:32:07.907Z,15.59
2023-07-27T01:34:40.646Z,15.61
2023-07-27T01:37:12.902Z,15.59
2023-07-27T01:39:46.668Z,15.60
2023-07-27T01:42:17.820Z,15.59
2023-07-27T01:44:48.843Z,15.59
2023-07-27T01:47:19.542Z,15.61
2023-07-27T01:49:49.047Z,15.60
2023-07-27T01:52:18.900Z,15.63
2023-07-27T01:54:49.321Z,15.65
2023-07-27T01:57:19.123Z,15.67
2023-07-27T01:59:49.225Z,15.66
2023-07-27T02:02:18.600Z,15.68
2023-07-27T02:04:49.994Z,15.69
2023-07-27T02:07:23.774Z,15.72
2023-07-27T02:09:54.706Z,15.73
2023-07-27T02:12:41.586Z,15.75
2023-07-27T02:15:17.129Z,15.75
2023-07-27T02:17:58.535Z,15.74
2023-07-27T02:20:32.651Z,15.76
2023-07-27T02:23:03.152Z,15.78
2023-07-27T02:25:32.796Z,15.81
2023-07-27T02:28:02.017Z,15.81
2023-07-27T02:30:31.209Z,15.85
2023-07-27T02:33:00.344Z,15.85
2023-07-27T02:35:29.489Z,15.88
2023-07-27T02:37:59.072Z,15.89
2023-07-27T02:40:29.850Z,15.90
2023-07-27T02:42:59.376Z,15.92
2023-07-27T02:45:28.515Z,15.90
2023-07-27T02:47:57.593Z,15.93
2023-07-27T02:50:26.677Z,15.95
2023-07-27T02:53:01.983Z,15.94
2023-07-27T02:55:31.364Z,15.95
2023-07-27T02:58:03.099Z,15.98
2023-07-27T03:00:36.146Z,15.96
2023-07-27T03:03:07.059Z,15.98
2023-07-27T03:05:36.254Z,16.01
2023-07-27T03:08:05.436Z,16.03
2023-07-27T03:10:38.158Z,16.02
2023-07-27T03:13:07.339Z,16.05
2023-07-27T03:15:39.734Z,16.03
2023-07-27T03:18:08.896Z,16.04
2023-07-27T03:20:47.150Z,16.04
2023-07-27T03:23:16.442Z,16.08
2023-07-27T03:25:45.452Z,16.10
2023-07-27T03:28:14.488Z,16.08
2023-07-27T03:30:43.762Z,16.10
2023-07-27T03:33:12.881Z,16.12
2023-07-27T03:35:41.960Z,16.12
2023-07-27T03:38:11.792Z,16.14
2023-07-27T03:40:41.030Z,16.16
2023-07-27T03:43:10.121Z,16.17
2023-07-27T03:45:40.686Z,16.18
2023-07-27T03:48:10.054Z,16.18
2023-07-27T03:50:39.259Z,16.21
2023-07-27T03:53:08.631Z,16.23
2023-07-27T03:55:37.645Z,16.25
2023-07-27T03:58:06.954Z,16.25
2023-07-27T04:00:36.003Z,16.27
2023-07-27T04:03:05.104Z,16.30
2023-07-27T04:05:34.196Z,16.33
2023-07-27T04:08:03.840Z,16.35
2023-07-27T04:10:33.198Z,16.33
2023-07-27T04:13:02.323Z,16.33
2023-07-27T04:15:31.672Z,16.33
2023-07-27T04:18:01.028Z,16.38
2023-07-27T04:20:30.065Z,16.41
2023-07-27T04:22:59.151Z,16.45
2023-07-27T04:25:28.152Z,16.47
2023-07-27T04:27:57.259Z,16.52
2023-07-27T04:30:26.252Z,16.53
2023-07-27T04:32:55.425Z,16.57
2023-07-27T04:35:24.485Z,16.58
2023-07-27T04:37:53.687Z,16.59
2023-07-27T04:40:22.841Z,16.62
2023-07-27T04:42:51.935Z,16.68
2023-07-27T04:45:21.104Z,16.69
2023-07-27T04:47:50.224Z,16.72
2023-07-27T04:50:19.399Z,16.73
2023-07-27T04:52:48.448Z,16.74
2023-07-27T04:55:17.571Z,16.76
2023-07-27T04:57:46.652Z,16.74
2023-07-27T05:00:15.940Z,16.73
2023-07-27T05:02:45.114Z,16.73
2023-07-27T05:05:14.214Z,16.76
2023-07-27T05:07:43.275Z,16.74
2023-07-27T05:10:12.436Z,16.75
2023-07-27T05:12:42.022Z,16.81
2023-07-27T05:15:11.289Z,16.80
2023-07-27T05:17:40.406Z,16.84
2023-07-27T05:20:10.015Z,16.82
2023-07-27T05:22:39.071Z,16.85
2023-07-27T05:25:09.926Z,16.84
2023-07-27T05:27:39.095Z,16.78
2023-07-27T05:30:08.845Z,16.78
2023-07-27T05:32:38.572Z,16.79
2023-07-27T05:35:07.859Z,16.82
2023-07-27T05:37:37.157Z,16.81
2023-07-27T05:40:07.465Z,16.82
2023-07-27T05:42:36.595Z,16.79
2023-07-27T05:45:06.188Z,16.80
2023-07-27T05:47:35.329Z,16.82
2023-07-27T05:50:07.394Z,16.83
2023-07-27T05:52:36.624Z,16.83
2023-07-27T05:55:07.704Z,16.84
2023-07-27T05:57:38.331Z,16.86
2023-07-27T06:00:10.596Z,16.84
2023-07-27T06:02:39.891Z,16.91
2023-07-27T06:05:09.701Z,16.94
2023-07-27T06:07:38.833Z,16.99
2023-07-27T06:10:08.454Z,16.97
2023-07-27T06:12:37.669Z,16.99
2023-07-27T06:15:09.351Z,16.95
2023-07-27T06:17:40.339Z,16.87
2023-07-27T06:20:11.385Z,16.86
2023-07-27T06:22:42.150Z,16.85
2023-07-27T06:25:13.016Z,16.83
2023-07-27T06:27:45.323Z,16.84
2023-07-27T06:30:16.504Z,16.81
2023-07-27T06:32:47.400Z,16.79
2023-07-27T06:35:18.634Z,16.82
2023-07-27T06:37:49.824Z,16.95
2023-07-27T06:40:21.108Z,17.00
2023-07-27T06:42:52.416Z,16.99
2023-07-27T06:45:23.515Z,17.04
2023-07-27T06:47:55.312Z,17.08
2023-07-27T06:50:26.630Z,17.05
2023-07-27T06:52:57.870Z,17.07
2023-07-27T06:55:29.008Z,17.09
2023-07-27T06:58:00.313Z,17.09
2023-07-27T07:00:33.265Z,17.17
2023-07-27T07:03:04.815Z,17.19
2023-07-27T07:05:36.264Z,17.27
2023-07-27T07:08:07.734Z,17.27
2023-07-27T07:10:39.004Z,17.33
2023-07-27T07:13:09.992Z,17.34
2023-07-27T07:15:40.789Z,17.39
2023-07-27T07:18:12.042Z,17.43
2023-07-27T07:20:43.237Z,17.56
2023-07-27T07:23:14.321Z,17.53
2023-07-27T07:25:45.614Z,17.49
2023-07-27T07:28:16.821Z,17.50
2023-07-27T07:30:48.141Z,17.50
2023-07-27T07:33:19.398Z,17.55
2023-07-27T07:35:50.846Z,17.51
2023-07-27T07:38:22.213Z,17.66
2023-07-27T07:40:53.438Z,17.60
2023-07-27T07:43:24.896Z,17.69
2023-07-27T07:45:56.206Z,17.68
2023-07-27T07:48:27.530Z,17.62
2023-07-27T07:51:00.686Z,17.67
2023-07-27T07:53:35.275Z,17.74
2023-07-27T07:56:13.343Z,17.65
2023-07-27T07:58:45.912Z,17.56
2023-07-27T08:01:17.414Z,17.56
2023-07-27T08:03:48.874Z,17.58
2023-07-27T08:06:20.337Z,17.56
2023-07-27T08:08:53.488Z,17.64
2023-07-27T08:11:24.948Z,17.66
2023-07-27T08:14:01.250Z,17.69
2023-07-27T08:16:33.111Z,17.68
2023-07-27T08:19:04.802Z,17.71
2023-07-27T08:21:36.042Z,17.70
2023-07-27T08:24:08.104Z,17.72
2023-07-27T08:26:39.478Z,17.79
2023-07-27T08:29:10.811Z,17.86
2023-07-27T08:31:42.669Z,17.83
2023-07-27T08:34:13.941Z,17.87
2023-07-27T08:36:48.464Z,17.99
2023-07-27T08:39:19.726Z,18.00
2023-07-27T08:41:51.273Z,18.03
2023-07-27T08:44:23.091Z,18.05
2023-07-27T08:46:54.518Z,18.00
2023-07-27T08:49:25.834Z,18.02
2023-07-27T08:51:57.069Z,17.98
2023-07-27T08:54:28.350Z,17.98
2023-07-27T08:56:59.626Z,17.94
2023-07-27T08:59:31.120Z,17.94
2023-07-27T09:02:04.577Z,17.91
2023-07-27T09:04:38.027Z,17.97
2023-07-27T09:07:14.278Z,17.98
2023-07-27T09:09:52.185Z,18.03
2023-07-27T09:12:28.127Z,18.06
2023-07-27T09:15:29.727Z,18.08
2023-07-27T09:18:09.423Z,18.08
2023-07-27T09:20:44.817Z,18.12
2023-07-27T09:23:25.496Z,18.10
2023-07-27T09:26:00.568Z,18.05
2023-07-27T09:28:32.496Z,18.03
2023-07-27T09:31:04.636Z,18.04
2023-07-27T09:33:36.146Z,18.10
2023-07-27T09:36:12.282Z,18.10
2023-07-27T09:38:44.206Z,18.10
2023-07-27T09:41:16.948Z,18.12
2023-07-27T09:43:48.294Z,18.15
2023-07-27T09:46:22.274Z,18.17
2023-07-27T09:48:53.929Z,18.24
2023-07-27T09:51:28.552Z,18.27
2023-07-27T09:54:01.350Z,18.31
2023-07-27T09:56:33.619Z,18.41
2023-07-27T09:59:05.512Z,18.40
2023-07-27T10:01:37.834Z,18.49
2023-07-27T10:04:09.187Z,18.48
2023-07-27T10:06:40.580Z,18.41
2023-07-27T10:09:23.161Z,18.33
2023-07-27T10:12:01.815Z,18.34
2023-07-27T10:14:34.196Z,18.40
2023-07-27T10:17:09.248Z,18.29
2023-07-27T10:19:55.376Z,18.39
2023-07-27T10:22:26.317Z,18.45
2023-07-27T10:24:59.773Z,18.59
2023-07-27T10:27:31.351Z,18.70
2023-07-27T10:30:18.922Z,18.74
2023-07-27T10:33:09.045Z,18.61
2023-07-27T10:36:02.952Z,18.61
2023-07-27T10:38:36.985Z,18.49
2023-07-27T10:41:24.474Z,18.55
2023-07-27T10:44:19.429Z,18.52
2023-07-27T10:46:55.670Z,18.59
2023-07-27T10:49:27.929Z,18.60
2023-07-27T10:52:02.515Z,18.63
2023-07-27T10:54:37.470Z,18.57
2023-07-27T10:57:11.009Z,18.69
2023-07-27T10:59:50.499Z,18.73
2023-07-27T11:02:33.485Z,18.73
2023-07-27T11:05:08.644Z,18.65
2023-07-27T11:07:41.518Z,18.68
2023-07-27T11:10:12.392Z,18.67
2023-07-27T11:12:58.652Z,18.74
2023-07-27T11:15:31.686Z,18.79
2023-07-27T11:18:01.341Z,18.81
2023-07-27T11:20:30.749Z,18.76
2023-07-27T11:23:00.666Z,18.77
2023-07-27T11:25:33.828Z,18.79
2023-07-27T11:28:05.041Z,18.79
2023-07-27T11:30:36.845Z,18.81
2023-07-27T11:33:06.979Z,18.81
2023-07-27T11:35:45.154Z,18.71
2023-07-27T11:38:14.251Z,18.55
2023-07-27T11:40:50.033Z,18.65
2023-07-27T11:43:19.091Z,18.59
2023-07-27T11:45:49.088Z,18.70
2023-07-27T11:48:18.010Z,18.76
2023-07-27T11:50:45.648Z,18.72
2023-07-27T11:53:17.551Z,18.66
2023-07-27T11:55:50.858Z,18.62
2023-07-27T11:58:18.942Z,18.60
2023-07-27T12:00:51.651Z,18.64
2023-07-27T12:03:25.567Z,18.73
2023-07-27T12:05:58.667Z,18.68
2023-07-27T12:11:03.691Z,18.70
2023-07-27T12:23:47.599Z,18.75
2023-07-27T12:28:48.499Z,18.82
2023-07-27T12:32:11.663Z,18.88
2023-07-27T12:34:07.655Z,18.96
2023-07-27T12:36:36.719Z,18.98
2023-07-27T12:39:05.727Z,18.98
2023-07-27T12:41:34.987Z,19.04
2023-07-27T12:44:04.362Z,19.05
2023-07-27T12:46:33.370Z,19.05
2023-07-27T12:49:02.351Z,19.12
2023-07-27T12:51:31.746Z,19.12
2023-07-27T12:54:05.251Z,18.98
2023-07-27T12:56:34.771Z,19.02
2023-07-27T12:59:03.858Z,19.02
2023-07-27T13:01:33.162Z,19.02
2023-07-27T13:04:02.435Z,19.01
2023-07-27T13:06:34.152Z,18.98
2023-07-27T13:09:04.108Z,18.93
2023-07-27T13:11:34.109Z,18.95
2023-07-27T13:14:04.585Z,18.93
2023-07-27T13:16:35.878Z,18.82
2023-07-27T13:19:05.728Z,18.78
2023-07-27T13:21:34.804Z,18.82
2023-07-27T13:24:04.207Z,18.87
2023-07-27T13:26:33.108Z,18.86
2023-07-27T13:29:02.072Z,18.83
2023-07-27T13:31:31.201Z,18.93
2023-07-27T13:34:01.095Z,18.96
2023-07-27T13:36:33.021Z,19.01
2023-07-27T13:39:03.355Z,18.97
2023-07-27T13:41:32.687Z,18.93
2023-07-27T13:44:01.962Z,18.91
2023-07-27T13:46:30.874Z,18.88
2023-07-27T13:48:59.862Z,18.95
2023-07-27T13:51:28.885Z,18.92
2023-07-27T13:53:58.285Z,18.95
2023-07-27T13:56:27.255Z,18.92
2023-07-27T13:58:56.503Z,18.85
2023-07-27T14:01:25.628Z,18.84
2023-07-27T14:03:54.778Z,18.87
2023-07-27T14:06:23.911Z,18.96
2023-07-27T14:08:56.390Z,18.97
2023-07-27T14:11:25.571Z,18.98
2023-07-27T14:13:56.272Z,18.97
2023-07-27T14:16:27.007Z,19.02
2023-07-27T14:18:57.800Z,19.04
2023-07-27T14:21:28.589Z,19.03
2023-07-27T14:23:59.321Z,18.98
2023-07-27T14:26:30.753Z,18.93
2023-07-27T14:29:01.459Z,19.01
2023-07-27T14:31:33.104Z,18.88
2023-07-27T14:34:04.747Z,18.97
2023-07-27T14:41:43.209Z,19.18
2023-07-27T14:44:14.425Z,19.19
2023-07-27T14:46:45.875Z,19.16
2023-07-27T14:49:23.910Z,19.12
2023-07-27T14:51:55.146Z,19.17
2023-07-27T14:54:25.948Z,19.12
2023-07-27T14:56:56.840Z,19.03
2023-07-27T14:59:43.374Z,19.03
2023-07-27T15:02:13.866Z,19.04
2023-07-27T15:07:18.801Z,19.08
2023-07-27T15:09:49.345Z,19.15
2023-07-27T15:12:18.529Z,19.16
2023-07-27T15:14:47.654Z,19.22
2023-07-27T15:17:16.831Z,19.20
2023-07-27T15:19:47.973Z,19.23
2023-07-27T15:22:17.410Z,19.24
2023-07-27T15:24:46.550Z,19.14
2023-07-27T15:27:15.798Z,19.07
2023-07-27T15:29:55.810Z,19.04
2023-07-27T15:32:25.315Z,19.00
2023-07-27T15:34:54.501Z,19.08
2023-07-27T15:37:23.642Z,19.03
2023-07-27T15:39:52.887Z,19.07
2023-07-27T15:42:23.014Z,19.04
2023-07-27T15:44:52.217Z,19.01
2023-07-27T15:47:21.372Z,19.01
2023-07-27T15:49:50.507Z,18.84
2023-07-27T15:52:19.663Z,18.77
2023-07-27T15:54:48.882Z,18.73
2023-07-27T15:57:18.121Z,18.69
2023-07-27T15:59:47.416Z,18.72
2023-07-27T16:02:16.679Z,18.67
2023-07-27T16:04:45.797Z,18.67
2023-07-27T16:07:14.990Z,18.70
2023-07-27T16:09:44.249Z,18.63
2023-07-27T16:12:13.374Z,18.54
2023-07-27T16:14:42.532Z,18.52
2023-07-27T16:17:11.730Z,18.53
2023-07-27T16:19:42.166Z,18.56
2023-07-27T16:22:13.306Z,18.62
2023-07-27T16:24:42.524Z,18.66
2023-07-27T16:27:11.626Z,18.70
2023-07-27T16:29:40.743Z,18.70
2023-07-27T16:32:11.278Z,18.71
2023-07-27T16:34:40.741Z,18.71
2023-07-27T16:37:09.829Z,18.69
2023-07-27T16:39:39.044Z,18.66
2023-07-27T16:42:09.910Z,18.69
2023-07-27T16:44:40.604Z,18.65
2023-07-27T16:47:10.923Z,18.63
2023-07-27T16:49:40.096Z,18.68
2023-07-27T16:52:09.197Z,18.70
2023-07-27T16:54:38.404Z,18.74
2023-07-27T16:57:07.732Z,18.78
2023-07-27T16:59:36.907Z,18.73
2023-07-27T17:02:06.608Z,18.74
2023-07-27T17:04:36.915Z,18.71
2023-07-27T17:07:06.476Z,18.67
2023-07-27T17:09:39.608Z,18.65
2023-07-27T17:12:10.869Z,18.66
2023-07-27T17:14:43.099Z,18.68
2023-07-27T17:17:14.121Z,18.70
2023-07-27T17:19:47.867Z,18.67
2023-07-27T17:22:25.318Z,18.69
2023-07-27T17:24:56.570Z,18.68
2023-07-27T17:27:27.922Z,18.72
2023-07-27T17:29:59.182Z,18.72
2023-07-27T17:32:30.335Z,18.69
2023-07-27T17:35:01.172Z,18.67
2023-07-27T17:37:31.960Z,18.68
2023-07-27T17:40:02.779Z,18.60
2023-07-27T17:42:33.633Z,18.56
2023-07-27T17:45:02.933Z,18.55
2023-07-27T17:47:32.254Z,18.51
2023-07-27T17:50:01.454Z,18.53
2023-07-27T17:52:30.569Z,18.55
2023-07-27T17:54:59.609Z,18.52
2023-07-27T17:57:28.853Z,18.54
2023-07-27T17:59:57.960Z,18.52
2023-07-27T18:02:27.071Z,18.48
2023-07-27T18:04:56.188Z,18.49
2023-07-27T18:07:25.430Z,18.50
2023-07-27T18:09:55.122Z,18.50
2023-07-27T18:12:24.670Z,18.49
2023-07-27T18:14:53.740Z,18.47
2023-07-27T18:17:21.820Z,18.54
2023-07-27T18:19:49.364Z,18.45
2023-07-27T18:22:17.089Z,18.64
2023-07-27T18:24:45.644Z,18.64
2023-07-27T18:27:13.319Z,18.70
2023-07-27T18:29:41.933Z,18.75
2023-07-27T18:32:10.268Z,18.74
2023-07-27T18:34:38.105Z,18.72
2023-07-27T18:37:07.509Z,18.71
2023-07-27T18:39:35.696Z,18.69
2023-07-27T18:42:05.326Z,18.77
2023-07-27T18:44:33.663Z,18.77
2023-07-27T18:47:01.323Z,18.88
2023-07-27T18:49:29.434Z,18.77
2023-07-27T18:51:57.149Z,18.77
2023-07-27T18:54:24.880Z,18.73
2023-07-27T18:56:52.500Z,18.73
2023-07-27T18:59:20.180Z,18.81
2023-07-27T19:01:47.993Z,18.74
2023-07-27T19:04:15.761Z,18.74
2023-07-27T19:06:43.485Z,18.72
2023-07-27T19:09:11.248Z,18.68
2023-07-27T19:11:38.926Z,18.72
2023-07-27T19:14:06.629Z,18.68
2023-07-27T19:16:34.287Z,18.73
2023-07-27T19:19:02.007Z,18.70
2023-07-27T19:21:29.633Z,18.69
2023-07-27T19:23:58.116Z,18.75
2023-07-27T19:26:29.277Z,18.69
2023-07-27T19:28:57.942Z,18.65
2023-07-27T19:31:26.761Z,18.66
2023-07-27T19:33:57.323Z,18.68
2023-07-27T19:36:27.350Z,18.72
2023-07-27T19:38:58.049Z,18.70
2023-07-27T19:41:25.716Z,18.64
2023-07-27T19:43:53.930Z,18.66
2023-07-27T19:46:21.677Z,18.68
2023-07-27T19:48:49.452Z,18.67
2023-07-27T19:51:17.134Z,18.70
2023-07-27T19:53:45.326Z,18.64
2023-07-27T19:56:15.058Z,18.72
2023-07-27T19:58:45.291Z,18.71
2023-07-27T20:01:14.219Z,18.66
2023-07-27T20:03:45.624Z,18.68
2023-07-27T20:06:13.360Z,18.55
2023-07-27T20:08:47.524Z,18.57
2023-07-27T20:11:16.675Z,18.58
2023-07-27T20:13:46.428Z,18.55
2023-07-27T20:16:14.947Z,18.58
2023-07-27T20:18:45.019Z,18.57
2023-07-27T20:21:14.488Z,18.61
2023-07-27T20:23:45.673Z,18.58
2023-07-27T20:26:13.373Z,18.57
2023-07-27T20:28:41.364Z,18.52
2023-07-27T20:31:09.941Z,18.58
2023-07-27T20:33:37.828Z,18.58
2023-07-27T20:36:07.321Z,18.61
2023-07-27T20:38:35.096Z,18.58
2023-07-27T20:41:04.925Z,18.64
2023-07-27T20:43:33.039Z,18.64
2023-07-27T20:46:04.871Z,18.62
2023-07-27T20:48:34.826Z,18.60
2023-07-27T20:51:08.266Z,18.61
2023-07-27T20:53:37.113Z,18.61
2023-07-27T20:56:19.466Z,18.63
2023-07-27T20:58:47.439Z,18.56
2023-07-27T21:01:15.654Z,18.59
2023-07-27T21:03:43.519Z,18.58
2023-07-27T21:06:11.258Z,18.52
2023-07-27T21:08:40.171Z,18.56
2023-07-27T21:11:08.949Z,18.54
2023-07-27T21:13:38.878Z,18.49
2023-07-27T21:16:09.764Z,18.55
2023-07-27T21:18:38.566Z,18.53
2023-07-27T21:21:20.935Z,18.55
2023-07-27T21:23:53.500Z,18.51
2023-07-27T21:26:22.847Z,18.55
2023-07-27T21:28:50.896Z,18.50
2023-07-27T21:31:18.560Z,18.52
2023-07-27T21:33:46.357Z,18.51
2023-07-27T21:36:14.035Z,18.57
2023-07-27T21:38:42.080Z,18.54
2023-07-27T21:41:12.844Z,18.52
2023-07-27T21:43:40.615Z,18.49
2023-07-27T21:46:09.374Z,18.47
2023-07-27T21:48:37.104Z,18.47
2023-07-27T21:51:05.173Z,18.50
2023-07-27T21:53:32.802Z,18.54
2023-07-27T21:56:00.581Z,18.55
2023-07-27T21:58:28.210Z,18.55
2023-07-27T22:00:56.475Z,18.53
2023-07-27T22:03:24.108Z,18.49
2023-07-27T22:05:51.803Z,18.51
2023-07-27T22:08:19.423Z,18.50
2023-07-27T22:10:47.085Z,18.49
2023-07-27T22:13:14.807Z,18.39
2023-07-27T22:15:42.527Z,18.37
2023-07-27T22:18:10.244Z,18.41
2023-07-27T22:20:43.976Z,18.40
2023-07-27T22:23:12.820Z,18.37
2023-07-27T22:25:44.209Z,18.41
2023-07-27T22:28:12.937Z,18.44
2023-07-27T22:30:47.883Z,18.47
2023-07-27T22:33:16.393Z,18.45
2023-07-27T22:35:47.714Z,18.40
2023-07-27T22:38:16.399Z,18.42
2023-07-27T22:40:58.869Z,18.39
2023-07-27T22:43:27.212Z,18.39
2023-07-27T22:45:57.493Z,18.36
2023-07-27T22:48:25.485Z,18.37
2023-07-27T22:50:53.511Z,18.40
2023-07-27T22:53:21.209Z,18.39
2023-07-27T22:55:51.028Z,18.44
2023-07-27T22:58:19.502Z,18.44
2023-07-27T23:00:47.612Z,18.43
2023-07-27T23:03:15.342Z,18.45
2023-07-27T23:05:43.518Z,18.45
2023-07-27T23:08:11.271Z,18.38
2023-07-27T23:10:42.814Z,18.34
2023-07-27T23:13:10.494Z,18.44
2023-07-27T23:15:39.710Z,18.40
2023-07-27T23:18:07.479Z,18.41
2023-07-27T23:20:35.250Z,18.36
2023-07-27T23:23:02.999Z,18.38
2023-07-27T23:25:30.857Z,18.40
2023-07-27T23:28:01.342Z,18.42
2023-07-27T23:30:30.893Z,18.44
2023-07-27T23:32:59.495Z,18.41
2023-07-27T23:35:27.285Z,18.42
2023-07-27T23:37:54.944Z,18.43
2023-07-27T23:40:22.698Z,18.44
2023-07-27T23:42:50.356Z,18.41
2023-07-27T23:45:18.177Z,18.42
2023-07-27T23:47:45.862Z,18.38
2023-07-27T23:50:13.571Z,18.41
2023-07-27T23:52:41.287Z,18.40
2023-07-27T23:55:09.356Z,18.35
2023-07-27T23:57:37.004Z,18.39
